Time;durP1;ratioP1;P1;durP2;ratioP2;P2;SDS_P1;SDS_P2;PMS_P1;PMS_P2;Temp;Humidity;BMP_temperature;BMP_pressure;BME280_temperature;BME280_humidity;BME280_pressure;Samples;Min_cycle;Max_cycle;Signal;HPM_P1;HPM_P2
2021/10/29 00:00:54;;;;;;;30.08;15.07;;;4.90;1.00;;;;;;5045615;28;20179;-77
2021/10/29 00:03:37;;;;;;;35.53;16.43;;;4.90;1.00;;;;;;5057814;28;20273;-77
2021/10/29 00:06:06;;;;;;;25.20;13.33;;;4.90;1.00;;;;;;5063502;28;20417;-77
2021/10/29 00:08:36;;;;;;;27.33;12.27;;;4.90;1.00;;;;;;5051159;28;20900;-77
2021/10/29 00:11:23;;;;;;;30.63;15.05;;;4.90;1.00;;;;;;5039248;28;20430;-77
2021/10/29 00:13:49;;;;;;;30.33;14.53;;;4.90;1.00;;;;;;5043714;28;20211;-77
2021/10/29 00:16:18;;;;;;;34.80;16.37;;;4.90;1.00;;;;;;5063550;28;20477;-77
2021/10/29 00:18:47;;;;;;;29.48;15.73;;;4.80;1.00;;;;;;5043554;28;20501;-76
2021/10/29 00:21:13;;;;;;;41.15;16.48;;;4.80;1.00;;;;;;5047846;28;20190;-75
2021/10/29 00:23:39;;;;;;;43.47;16.80;;;4.80;1.00;;;;;;5053319;28;20517;-75
2021/10/29 00:26:23;;;;;;;30.60;14.20;;;4.80;1.00;;;;;;5070766;28;20194;-75
2021/10/29 00:28:49;;;;;;;36.37;15.27;;;4.80;1.00;;;;;;5058900;28;20520;-75
2021/10/29 00:31:15;;;;;;;28.67;15.30;;;4.70;1.00;;;;;;5056038;28;20429;-76
2021/10/29 00:33:41;;;;;;;28.63;15.73;;;4.70;1.00;;;;;;5068363;28;20288;-75
2021/10/29 00:36:18;;;;;;;28.27;12.97;;;4.80;1.00;;;;;;5072806;28;20406;-75
2021/10/29 00:38:48;;;;;;;33.17;16.00;;;4.80;1.00;;;;;;5045552;28;20637;-76
2021/10/29 00:41:18;;;;;;;34.75;16.30;;;4.80;1.00;;;;;;5037415;28;20500;-76
2021/10/29 00:43:48;;;;;;;31.33;16.83;;;4.70;1.00;;;;;;5051175;28;20683;-76
2021/10/29 00:46:24;;;;;;;32.28;17.10;;;4.70;1.00;;;;;;5054757;28;20425;-76
2021/10/29 00:48:54;;;;;;;28.58;15.85;;;4.70;1.00;;;;;;5055824;28;20190;-76
2021/10/29 00:51:20;;;;;;;47.53;17.20;;;4.70;1.00;;;;;;5051738;28;20196;-76
2021/10/29 00:53:48;;;;;;;39.60;17.70;;;4.70;1.00;;;;;;5057133;28;20498;-76
2021/10/29 00:56:24;;;;;;;35.25;17.27;;;4.80;1.00;;;;;;5058178;28;20183;-76
2021/10/29 00:58:49;;;;;;;26.17;13.40;;;4.90;1.00;;;;;;5056340;28;20181;-76
2021/10/29 01:01:15;;;;;;;28.60;15.70;;;;;;;;;;5049789;28;20545;-76
2021/10/29 01:03:42;;;;;;;25.13;13.10;;;5.00;1.00;;;;;;5050351;28;20164;-76
2021/10/29 01:06:11;;;;;;;32.20;17.70;;;5.10;1.00;;;;;;5056978;28;20414;-75
2021/10/29 01:08:42;;;;;;;33.70;14.47;;;5.10;1.00;;;;;;5057147;28;20429;-75
2021/10/29 01:11:14;;;;;;;36.90;16.65;;;5.20;1.00;;;;;;5037742;28;20421;-75
2021/10/29 01:13:45;;;;;;;30.73;15.37;;;5.30;1.00;;;;;;5053775;28;20211;-75
2021/10/29 01:16:12;;;;;;;25.87;13.13;;;5.40;1.00;;;;;;5067699;28;20464;-75
2021/10/29 01:18:38;;;;;;;29.03;15.60;;;5.60;1.00;;;;;;5073485;28;20421;-76
2021/10/29 01:21:03;;;;;;;29.20;13.70;;;5.60;1.00;;;;;;5057370;28;20421;-75
2021/10/29 01:23:29;;;;;;;30.13;14.23;;;5.70;1.00;;;;;;5059851;28;20455;-76
2021/10/29 01:26:07;;;;;;;30.27;14.17;;;5.80;1.00;;;;;;5066152;28;20176;-76
2021/10/29 01:28:34;;;;;;;33.00;14.20;;;5.90;1.00;;;;;;5056998;28;20176;-75
2021/10/29 01:31:01;;;;;;;24.03;11.93;;;6.00;1.00;;;;;;5046218;28;20505;-75
2021/10/29 01:33:29;;;;;;;34.50;14.57;;;6.00;1.00;;;;;;5058112;28;20476;-77
2021/10/29 01:35:55;;;;;;;38.50;14.60;;;6.10;1.00;;;;;;5065172;28;20422;-78
2021/10/29 01:38:50;;;;;;;28.60;13.90;;;6.20;1.00;;;;;;5051074;28;20426;-77
2021/10/29 01:41:16;;;;;;;28.07;12.47;;;6.40;1.00;;;;;;5046208;28;20509;-77
2021/10/29 01:43:44;;;;;;;35.93;14.43;;;6.40;1.00;;;;;;5049023;28;20500;-77
2021/10/29 01:46:11;;;;;;;30.37;13.47;;;6.50;1.00;;;;;;5053183;28;20214;-77
2021/10/29 01:48:49;;;;;;;32.13;14.07;;;6.60;1.00;;;;;;5055621;28;20450;-77
2021/10/29 01:51:30;;;;;;;43.23;15.63;;;6.70;1.00;;;;;;5055701;28;20476;-78
2021/10/29 01:54:17;;;;;;;38.30;14.80;;;6.80;1.00;;;;;;5037661;28;20833;-77
2021/10/29 01:56:48;;;;;;;27.97;13.60;;;6.90;1.00;;;;;;5066481;28;20452;-77
2021/10/29 01:59:13;;;;;;;40.30;15.90;;;7.00;1.00;;;;;;5067223;28;20416;-77
2021/10/29 02:01:42;;;;;;;31.40;15.40;;;7.10;1.00;;;;;;5052545;28;20423;-77
2021/10/29 02:04:18;;;;;;;47.20;13.73;;;7.10;1.00;;;;;;5067787;28;20176;-76
2021/10/29 02:06:44;;;;;;;54.00;15.00;;;7.20;1.00;;;;;;5057808;28;20449;-76
2021/10/29 02:09:10;;;;;;;35.80;14.00;;;7.30;1.00;;;;;;5065956;28;20448;-77
2021/10/29 02:11:36;;;;;;;34.53;15.97;;;7.40;1.00;;;;;;5054602;28;20426;-76
2021/10/29 02:14:02;;;;;;;34.23;16.30;;;7.40;1.00;;;;;;5055929;28;20469;-76
2021/10/29 02:16:30;;;;;;;43.90;15.73;;;7.50;1.00;;;;;;5069308;28;20441;-76
2021/10/29 02:18:56;;;;;;;39.57;15.93;;;7.60;1.00;;;;;;5065407;28;20483;-75
2021/10/29 02:21:22;;;;;;;30.07;15.13;;;7.60;1.00;;;;;;5056419;28;20422;-76
2021/10/29 02:23:54;;;;;;;31.00;15.90;;;7.70;1.00;;;;;;5066491;28;20757;-76
2021/10/29 02:26:30;;;;;;;31.33;14.53;;;7.70;1.00;;;;;;5044576;28;20426;-76
2021/10/29 02:28:56;;;;;;;32.07;16.27;;;7.80;1.00;;;;;;5068371;28;20448;-76
2021/10/29 02:31:24;;;;;;;34.47;15.37;;;7.80;1.00;;;;;;5067755;28;20418;-76
2021/10/29 02:33:51;;;;;;;33.77;16.77;;;7.80;1.00;;;;;;5054731;28;21014;-76
2021/10/29 02:36:17;;;;;;;33.43;16.50;;;7.90;1.00;;;;;;5068855;28;20497;-76
2021/10/29 02:38:42;;;;;;;29.83;15.33;;;7.90;1.00;;;;;;5068422;28;20445;-76
2021/10/29 02:41:08;;;;;;;38.30;16.63;;;7.90;1.00;;;;;;5067318;28;20950;-76
2021/10/29 02:43:36;;;;;;;46.53;16.43;;;8.00;1.00;;;;;;5042060;28;20187;-76
2021/10/29 02:46:12;;;;;;;34.90;17.10;;;8.10;1.00;;;;;;5065637;28;20453;-75
2021/10/29 02:48:59;;;;;;;30.60;14.57;;;8.00;1.00;;;;;;5051041;28;20413;-75
2021/10/29 02:51:25;;;;;;;36.10;16.47;;;8.10;1.00;;;;;;5056014;28;20430;-76
2021/10/29 02:53:52;;;;;;;42.23;16.70;;;8.10;1.00;;;;;;5054434;28;20552;-75
2021/10/29 02:56:30;;;;;;;35.47;16.70;;;8.10;1.00;;;;;;5066730;28;20444;-75
2021/10/29 02:58:56;;;;;;;30.00;14.60;;;;;;;;;;5068593;28;20442;-76
2021/10/29 03:01:24;;;;;;;33.93;15.67;;;8.20;1.00;;;;;;5066199;28;20412;-75
2021/10/29 03:03:50;;;;;;;34.37;15.90;;;8.20;1.00;;;;;;5048728;28;20409;-76
2021/10/29 03:06:18;;;;;;;35.27;16.17;;;8.30;1.00;;;;;;5061713;28;20448;-75
2021/10/29 03:08:54;;;;;;;34.50;16.03;;;8.30;1.00;;;;;;5042543;28;20212;-76
2021/10/29 03:11:20;;;;;;;32.80;15.40;;;;;;;;;;5049684;28;20429;-76
2021/10/29 03:13:45;;;;;;;49.20;18.80;;;8.40;1.00;;;;;;5050252;28;20484;-76
2021/10/29 03:16:12;;;;;;;34.53;16.57;;;8.40;1.00;;;;;;5059904;28;20742;-76
2021/10/29 03:18:45;;;;;;;43.00;17.10;;;8.40;1.00;;;;;;5054842;28;20175;-75
2021/10/29 03:21:11;;;;;;;41.80;16.77;;;8.50;1.00;;;;;;5053424;28;20426;-76
2021/10/29 03:23:42;;;;;;;37.47;15.77;;;8.50;1.00;;;;;;5053984;28;20447;-75
2021/10/29 03:26:08;;;;;;;37.43;17.03;;;8.50;1.00;;;;;;5066168;28;20550;-75
2021/10/29 03:28:35;;;;;;;39.23;16.93;;;8.50;1.00;;;;;;5064338;28;20416;-77
2021/10/29 03:31:12;;;;;;;41.50;16.67;;;8.50;1.00;;;;;;5071208;28;20274;-76
2021/10/29 03:33:42;;;;;;;36.10;15.53;;;8.60;1.00;;;;;;5053050;28;21086;-75
2021/10/29 03:36:08;;;;;;;31.77;15.33;;;8.60;1.00;;;;;;5066447;28;20462;-77
2021/10/29 03:41:17;;;;;;;32.90;15.13;;;8.60;1.00;;;;;;5049138;28;20193;-77
2021/10/29 03:46:21;;;;;;;49.50;16.70;;;8.70;1.00;;;;;;5059897;28;20433;-77
2021/10/29 03:49:18;;;;;;;33.17;16.53;;;8.70;1.00;;;;;;5040396;28;20175;-77
2021/10/29 03:51:41;;;;;;;44.00;17.30;;;;;;;;;;5052464;28;20430;-77
2021/10/29 03:54:22;;;;;;;36.20;16.27;;;;;;;;;;5046566;28;20928;-77
2021/10/29 03:57:06;;;;;;;39.70;16.27;;;8.70;1.00;;;;;;5060018;28;20421;-77
2021/10/29 03:59:32;;;;;;;31.87;15.73;;;8.70;1.00;;;;;;5065534;28;20420;-77
2021/10/29 04:02:00;;;;;;;39.83;17.10;;;8.70;1.00;;;;;;5056399;28;20893;-77
2021/10/29 04:04:42;;;;;;;34.47;14.67;;;8.70;1.00;;;;;;5054425;28;20939;-77
2021/10/29 04:07:12;;;;;;;31.53;16.33;;;8.70;1.00;;;;;;5033961;28;21072;-77
2021/10/29 04:09:38;;;;;;;36.10;16.87;;;;;;;;;;5064180;28;20742;-76
2021/10/29 04:12:05;;;;;;;31.97;16.33;;;8.80;1.00;;;;;;5055527;28;20415;-77
2021/10/29 04:14:30;;;;;;;32.97;17.07;;;8.80;1.00;;;;;;5047726;28;20473;-77
2021/10/29 04:17:00;;;;;;;45.90;16.87;;;8.80;1.00;;;;;;5072366;28;20417;-77
2021/10/29 04:19:59;;;;;;;41.23;17.70;;;8.80;1.00;;;;;;5068181;28;20641;-77
2021/10/29 04:22:30;;;;;;;41.20;17.53;;;8.90;1.00;;;;;;5052068;28;20425;-76
2021/10/29 04:24:55;;;;;;;50.70;17.40;;;8.90;1.00;;;;;;5052916;28;20433;-75
2021/10/29 04:27:28;;;;;;;47.13;17.43;;;8.90;1.00;;;;;;5039468;28;20898;-78
2021/10/29 04:29:54;;;;;;;42.10;16.10;;;9.00;1.00;;;;;;5037792;28;20156;-77
2021/10/29 04:32:21;;;;;;;36.67;16.80;;;;;;;;;;5052788;28;20924;-78
2021/10/29 04:34:47;;;;;;;42.13;17.00;;;9.00;1.00;;;;;;5055134;28;20432;-76
2021/10/29 04:37:13;;;;;;;40.80;17.27;;;9.00;1.00;;;;;;5053012;28;20436;-73
2021/10/29 04:39:39;;;;;;;36.43;16.07;;;9.00;1.00;;;;;;5047761;28;20773;-76
2021/10/29 04:42:05;;;;;;;36.73;15.97;;;9.10;1.00;;;;;;5054117;28;20430;-75
2021/10/29 04:44:42;;;;;;;37.00;16.97;;;9.00;1.00;;;;;;5041520;28;20433;-77
2021/10/29 04:47:08;;;;;;;28.70;15.60;;;9.10;1.00;;;;;;5039152;28;20436;-75
2021/10/29 04:49:34;;;;;;;33.47;16.27;;;;;;;;;;5052820;28;20426;-75
2021/10/29 04:52:00;;;;;;;39.10;17.17;;;9.10;1.00;;;;;;5044710;28;20535;-75
2021/10/29 04:54:31;;;;;;;39.80;18.00;;;9.10;1.00;;;;;;5052882;28;20461;-75
2021/10/29 04:56:58;;;;;;;40.73;17.17;;;9.10;1.00;;;;;;5039732;28;20498;-76
2021/10/29 04:59:24;;;;;;;39.17;16.47;;;9.10;1.00;;;;;;5045478;28;20417;-75
2021/10/29 05:02:00;;;;;;;33.67;16.83;;;9.10;1.00;;;;;;5048381;28;20875;-75
2021/10/29 05:04:25;;;;;;;42.60;16.50;;;9.10;1.00;;;;;;5051807;28;20425;-75
2021/10/29 05:06:51;;;;;;;33.63;15.40;;;9.10;1.00;;;;;;5046151;28;20779;-75
2021/10/29 05:09:18;;;;;;;43.00;17.07;;;9.10;1.00;;;;;;5050800;28;20183;-75
2021/10/29 05:11:44;;;;;;;37.97;16.20;;;;;;;;;;5052351;28;20183;-76
2021/10/29 05:14:10;;;;;;;41.47;16.20;;;9.10;1.00;;;;;;5052391;28;20504;-75
2021/10/29 05:16:36;;;;;;;33.07;15.33;;;;;;;;;;5046262;28;20467;-75
2021/10/29 05:19:01;;;;;;;36.30;17.00;;;9.20;1.00;;;;;;5049663;28;20615;-75
2021/10/29 05:21:30;;;;;;;34.50;17.50;;;9.20;1.00;;;;;;5042431;28;20475;-77
2021/10/29 05:24:12;;;;;;;39.80;17.83;;;9.20;1.00;;;;;;5052225;28;20168;-77
2021/10/29 05:26:43;;;;;;;39.43;17.00;;;9.20;1.00;;;;;;5048584;28;20482;-76
2021/10/29 05:29:12;;;;;;;35.70;16.37;;;9.20;1.00;;;;;;5049354;28;20760;-76
2021/10/29 05:31:38;;;;;;;35.07;16.30;;;;;;;;;;5051595;28;20422;-76
2021/10/29 05:34:04;;;;;;;36.90;15.80;;;9.20;1.00;;;;;;5056833;28;20477;-76
2021/10/29 05:36:30;;;;;;;34.63;14.37;;;9.20;1.00;;;;;;5059703;28;20430;-76
2021/10/29 05:38:56;;;;;;;34.83;15.27;;;9.30;1.00;;;;;;5045359;28;20423;-76
2021/10/29 05:41:24;;;;;;;40.43;16.87;;;9.30;1.00;;;;;;5036486;28;20180;-76
2021/10/29 05:43:50;;;;;;;29.90;15.07;;;9.30;1.00;;;;;;5052552;28;21248;-76
2021/10/29 05:46:18;;;;;;;32.30;16.23;;;9.30;1.00;;;;;;5068419;28;20512;-76
2021/10/29 05:48:45;;;;;;;31.90;16.10;;;9.30;1.00;;;;;;5055599;28;20192;-76
2021/10/29 05:51:19;;;;;;;35.50;15.20;;;9.30;1.00;;;;;;5055828;28;20430;-75
2021/10/29 05:56:21;;;;;;;33.53;15.70;;;9.30;1.00;;;;;;5047362;28;20406;-76
2021/10/29 05:58:48;;;;;;;32.37;15.00;;;9.40;1.00;;;;;;5054823;28;20893;-75
2021/10/29 06:01:15;;;;;;;32.17;16.07;;;;;;;;;;5050792;28;20491;-74
2021/10/29 06:03:48;;;;;;;33.93;15.70;;;9.40;1.00;;;;;;5060846;28;20448;-75
2021/10/29 06:06:13;;;;;;;37.37;18.10;;;9.40;1.00;;;;;;5061701;28;20426;-76
2021/10/29 06:08:39;;;;;;;34.27;15.40;;;;;;;;;;5047666;28;20417;-76
2021/10/29 06:11:06;;;;;;;34.07;16.57;;;9.40;1.00;;;;;;5046132;28;20639;-76
2021/10/29 06:13:31;;;;;;;35.63;16.10;;;9.40;1.00;;;;;;5035999;28;20910;-76
2021/10/29 06:15:57;;;;;;;32.17;16.83;;;9.40;1.00;;;;;;5049206;28;20436;-78
2021/10/29 06:18:24;;;;;;;34.37;15.87;;;9.40;1.00;;;;;;5057569;28;20210;-76
2021/10/29 06:20:51;;;;;;;31.83;15.37;;;9.40;1.00;;;;;;5056367;28;20179;-77
2021/10/29 06:23:21;;;;;;;29.30;14.73;;;9.40;1.00;;;;;;5042873;28;20964;-77
2021/10/29 06:25:48;;;;;;;27.80;14.23;;;9.40;1.00;;;;;;5067710;28;20413;-74
2021/10/29 06:28:33;;;;;;;26.33;14.80;;;9.40;1.00;;;;;;5054546;28;20939;-74
2021/10/29 06:30:59;;;;;;;29.03;14.27;;;;;;;;;;5050862;28;20410;-75
2021/10/29 06:33:25;;;;;;;35.67;15.37;;;9.40;1.00;;;;;;5061722;28;20651;-75
2021/10/29 06:35:54;;;;;;;28.97;15.40;;;9.40;1.00;;;;;;5057240;28;20512;-75
2021/10/29 06:38:30;;;;;;;31.10;14.60;;;9.40;1.00;;;;;;5060615;28;20422;-75
2021/10/29 06:40:56;;;;;;;31.60;15.43;;;9.40;1.00;;;;;;5055290;28;20838;-75
2021/10/29 06:43:31;;;;;;;36.67;15.57;;;9.50;1.00;;;;;;5047679;28;20439;-75
2021/10/29 06:46:11;;;;;;;31.37;15.03;;;;;;;;;;5036100;28;20433;-75
2021/10/29 06:59:28;;;;;;;49.70;17.33;;;9.60;1.00;;;;;;5053918;28;20428;-76
2021/10/29 07:40:18;;;;;;;32.10;15.30;;;;;;;;;;5034410;28;20419;-76
2021/10/29 07:42:56;;;;;;;37.17;13.90;;;9.70;1.00;;;;;;5063842;28;20434;-76
2021/10/29 07:45:23;;;;;;;35.87;14.73;;;9.70;1.00;;;;;;5043305;28;20458;-76
2021/10/29 07:47:50;;;;;;;28.17;15.13;;;;;;;;;;5042201;28;20420;-76
2021/10/29 07:50:18;;;;;;;36.40;14.60;;;9.80;1.00;;;;;;5053002;28;20430;-76
2021/10/29 07:52:49;;;;;;;35.43;15.17;;;9.90;1.00;;;;;;5038143;28;20427;-76
2021/10/29 07:55:16;;;;;;;39.73;15.80;;;9.90;1.00;;;;;;5046254;28;20401;-76
2021/10/29 07:57:44;;;;;;;35.30;16.97;;;10.00;1.00;;;;;;5049311;28;20422;-80
2021/10/29 08:00:11;;;;;;;31.50;15.27;;;10.00;1.00;;;;;;5059546;28;20413;-76
2021/10/29 08:02:44;;;;;;;37.70;14.90;;;10.00;1.00;;;;;;5067634;28;20405;-76
2021/10/29 08:05:12;;;;;;;32.50;15.30;;;10.10;1.00;;;;;;5038975;28;20414;-76
2021/10/29 08:07:42;;;;;;;29.97;15.00;;;10.10;1.00;;;;;;5044038;28;20421;-76
2021/10/29 08:10:10;;;;;;;35.50;15.27;;;10.10;1.00;;;;;;5038046;28;20427;-76
2021/10/29 08:12:48;;;;;;;30.27;15.33;;;10.20;1.00;;;;;;5051229;28;20882;-76
2021/10/29 08:15:15;;;;;;;35.77;16.83;;;10.20;1.00;;;;;;5040438;28;20808;-76
2021/10/29 08:17:42;;;;;;;32.80;16.33;;;10.30;1.00;;;;;;5050211;28;20419;-76
2021/10/29 08:20:18;;;;;;;38.13;16.60;;;10.40;1.00;;;;;;5048640;28;20430;-77
2021/10/29 08:22:44;;;;;;;39.37;16.53;;;10.40;1.00;;;;;;5049250;28;20418;-76
2021/10/29 08:25:18;;;;;;;33.13;16.27;;;;;;;;;;5046193;28;20489;-77
2021/10/29 08:27:45;;;;;;;42.37;14.53;;;;;;;;;;5054242;28;20748;-76
2021/10/29 08:30:12;;;;;;;43.33;17.73;;;;;;;;;;5059614;28;20413;-76
2021/10/29 08:32:39;;;;;;;34.50;14.37;;;;;;;;;;5060104;28;20833;-77
2021/10/29 08:35:07;;;;;;;34.13;15.33;;;11.40;1.00;;;;;;5057485;28;20430;-76
2021/10/29 08:37:33;;;;;;;38.07;14.60;;;10.50;1.00;;;;;;5053266;28;20429;-75
2021/10/29 08:40:07;;;;;;;33.00;14.90;;;10.50;1.00;;;;;;5052414;28;20446;-75
2021/10/29 08:42:33;;;;;;;33.60;15.50;;;10.50;1.00;;;;;;5051658;28;20418;-75
2021/10/29 08:45:08;;;;;;;41.47;16.50;;;10.70;1.00;;;;;;5058155;28;20460;-76
2021/10/29 08:47:35;;;;;;;38.53;15.57;;;10.80;1.00;;;;;;5057796;28;20428;-75
2021/10/29 08:50:04;;;;;;;28.80;13.37;;;10.90;1.00;;;;;;5052067;28;20911;-76
2021/10/29 08:52:31;;;;;;;33.17;13.97;;;10.90;1.00;;;;;;5053688;28;20900;-76
2021/10/29 08:55:08;;;;;;;34.40;15.40;;;11.00;1.00;;;;;;5053242;28;20422;-77
2021/10/29 08:57:35;;;;;;;38.10;15.50;;;11.00;1.00;;;;;;5040995;28;20418;-76
2021/10/29 09:00:06;;;;;;;34.70;14.77;;;11.10;1.00;;;;;;5057416;28;20431;-77
2021/10/29 09:02:35;;;;;;;35.00;15.50;;;11.20;1.00;;;;;;5060329;28;20434;-75
2021/10/29 09:32:35;;;;;;;32.27;14.73;;;11.50;1.00;;;;;;5061877;28;20418;-77
2021/10/29 09:35:15;;;;;;;26.43;12.77;;;11.30;1.00;;;;;;5063404;28;20441;-77
2021/10/29 09:38:09;;;;;;;27.77;12.83;;;11.50;1.00;;;;;;5054761;28;20429;-77
2021/10/29 09:40:37;;;;;;;29.10;12.67;;;12.00;1.00;;;;;;5056398;28;20414;-77
2021/10/29 09:43:20;;;;;;;38.70;13.10;;;;;;;;;;5063871;28;20500;-77
2021/10/29 09:46:01;;;;;;;25.77;13.33;;;11.70;1.00;;;;;;5041690;28;20459;-77
2021/10/29 09:48:47;;;;;;;32.20;13.50;;;11.70;1.00;;;;;;5060427;28;20807;-77
2021/10/29 09:51:16;;;;;;;20.00;11.80;;;11.90;1.00;;;;;;5068269;28;20919;-77
2021/10/29 09:59:01;;;;;;;25.83;11.90;;;12.00;1.00;;;;;;5038022;28;20832;-76
2021/10/29 10:01:34;;;;;;;26.40;12.20;;;12.20;1.00;;;;;;5048612;28;20465;-76
2021/10/29 10:04:04;;;;;;;28.23;13.20;;;12.40;1.00;;;;;;5061096;28;20503;-76
2021/10/29 10:06:33;;;;;;;30.00;11.03;;;12.60;1.00;;;;;;5053047;28;20428;-76
2021/10/29 10:09:03;;;;;;;22.33;11.30;;;12.90;1.00;;;;;;5038881;28;20519;-76
2021/10/29 10:11:30;;;;;;;19.70;10.47;;;13.00;1.00;;;;;;5040891;28;20427;-76
2021/10/29 10:13:57;;;;;;;16.97;9.90;;;13.20;1.00;;;;;;5041497;28;20545;-76
2021/10/29 10:16:30;;;;;;;21.67;10.00;;;13.30;1.00;;;;;;5046914;28;20422;-76
2021/10/29 10:18:56;;;;;;;19.27;10.07;;;13.30;1.00;;;;;;5050232;28;20792;-76
2021/10/29 10:21:26;;;;;;;18.87;10.10;;;13.20;1.00;;;;;;5062699;28;20487;-76
2021/10/29 10:23:55;;;;;;;23.03;10.50;;;13.10;1.00;;;;;;5054877;28;20465;-76
2021/10/29 10:46:09;;;;;;;15.47;9.03;;;13.50;1.00;;;;;;5054710;28;20410;-76
2021/10/29 10:48:47;;;;;;;15.90;8.80;;;13.50;1.00;;;;;;5052452;28;20467;-76
2021/10/29 10:54:40;;;;;;;19.60;9.80;;;13.40;1.00;;;;;;5030176;28;20973;-76
2021/10/29 11:05:41;;;;;;;18.77;9.03;;;13.50;1.00;;;;;;5033142;28;20413;-76
2021/10/29 11:11:11;;;;;;;22.70;10.07;;;13.70;1.00;;;;;;5042475;28;20403;-76
2021/10/29 11:13:43;;;;;;;28.47;10.93;;;13.80;1.00;;;;;;5027877;28;20970;-76
2021/10/29 11:16:17;;;;;;;15.00;9.27;;;13.90;1.00;;;;;;5044282;28;20430;-76
2021/10/29 11:19:06;;;;;;;15.10;9.27;;;13.90;1.00;;;;;;5033662;28;20431;-76
2021/10/29 11:21:37;;;;;;;16.37;8.70;;;14.10;1.00;;;;;;5023575;28;20426;-76
2021/10/29 11:24:07;;;;;;;15.60;8.60;;;14.20;1.00;;;;;;5036075;28;20414;-75
2021/10/29 11:26:48;;;;;;;18.70;8.97;;;14.20;1.00;;;;;;5030244;28;20469;-76
2021/10/29 11:29:15;;;;;;;15.93;8.60;;;;;;;;;;5011882;28;20423;-76
2021/10/29 11:31:51;;;;;;;19.87;9.53;;;14.10;1.00;;;;;;5031968;28;20382;-76
2021/10/29 11:34:17;;;;;;;16.47;8.67;;;14.30;1.00;;;;;;5074357;28;20487;-76
2021/10/29 11:36:50;;;;;;;14.77;8.60;;;14.40;1.00;;;;;;5051800;28;20405;-76
2021/10/29 11:39:23;;;;;;;15.43;8.83;;;14.40;1.00;;;;;;5065122;28;20430;-76
2021/10/29 11:41:54;;;;;;;23.80;9.60;;;14.40;1.00;;;;;;5057776;28;20832;-77
2021/10/29 11:44:24;;;;;;;18.40;8.80;;;14.40;1.00;;;;;;5061779;28;20437;-77
2021/10/29 11:46:53;;;;;;;14.10;8.57;;;14.40;1.00;;;;;;5043619;28;20505;-77
2021/10/29 11:49:28;;;;;;;19.20;9.50;;;14.40;1.00;;;;;;5053902;28;20381;-81
2021/10/29 11:51:57;;;;;;;16.13;8.60;;;14.50;1.00;;;;;;5042544;28;20896;-79
2021/10/29 11:54:42;;;;;;;15.53;7.77;;;14.60;1.00;;;;;;5054158;28;20500;-79
2021/10/29 12:06:10;;;;;;;17.53;8.80;;;14.70;1.00;;;;;;5063585;28;20424;-76
2021/10/29 12:08:37;;;;;;;15.90;9.27;;;14.60;1.00;;;;;;5043787;28;20912;-76
2021/10/29 12:11:18;;;;;;;17.87;8.70;;;14.60;1.00;;;;;;5057837;28;20413;-79
2021/10/29 12:14:02;;;;;;;15.30;8.30;;;14.50;1.00;;;;;;5058305;28;20462;-75
2021/10/29 12:16:31;;;;;;;22.50;8.90;;;14.30;1.00;;;;;;5033815;28;20403;-75
2021/10/29 12:19:08;;;;;;;17.10;8.83;;;14.20;1.00;;;;;;5046343;28;20431;-76
2021/10/29 12:21:44;;;;;;;16.00;8.80;;;14.30;1.00;;;;;;5043543;28;20907;-76
2021/10/29 12:24:31;;;;;;;17.17;9.43;;;14.30;1.00;;;;;;5045883;28;20437;-76
2021/10/29 12:27:38;;;;;;;18.00;9.00;;;14.40;1.00;;;;;;5046032;28;20476;-77
2021/10/29 12:30:17;;;;;;;14.70;9.00;;;14.50;1.00;;;;;;5064246;28;20520;-76
2021/10/29 13:01:25;;;;;;;19.33;9.43;;;14.50;1.00;;;;;;5041310;28;20419;-76
2021/10/29 13:02:04;;;;;;;16.60;9.57;;;;;;;;;;5031383;28;20414;-76
2021/10/29 13:04:38;;;;;;;13.20;8.57;;;14.60;1.00;;;;;;5054904;28;20369;-75
2021/10/29 13:07:06;;;;;;;16.50;8.80;;;14.70;1.00;;;;;;5037597;28;20438;-76
2021/10/29 13:09:35;;;;;;;13.40;8.10;;;14.80;1.00;;;;;;5046800;28;20948;-75
2021/10/29 13:12:41;;;;;;;16.63;9.13;;;14.90;1.00;;;;;;5026384;28;20488;-77
2021/10/29 13:14:59;;;;;;;17.60;8.93;;;;;;;;;;5029458;28;20441;-77
2021/10/29 13:17:34;;;;;;;18.43;8.50;;;15.20;1.00;;;;;;5025384;28;20514;-78
2021/10/29 13:52:54;;;;;;;28.43;15.17;;;;;;;;;;5025862;28;20440;-75
2021/10/29 14:01:08;;;;;;;32.90;14.80;;;14.30;1.00;;;;;;5029563;28;20407;-74
2021/10/29 14:29:04;;;;;;;29.33;14.90;;;14.40;1.00;;;;;;4974520;28;20452;-75
2021/10/29 14:31:45;;;;;;;20.13;11.87;;;;;;;;;;4971557;28;20435;-75
2021/10/29 14:34:16;;;;;;;29.40;13.87;;;14.30;1.00;;;;;;4955544;29;20470;-75
2021/10/29 14:45:21;;;;;;;22.00;12.13;;;;;;;;;;4962578;28;20422;-76
2021/10/29 14:47:34;;;;;;;24.50;12.73;;;14.00;1.00;;;;;;4961209;28;20403;-76
2021/10/29 14:50:16;;;;;;;22.37;12.50;;;14.00;1.00;;;;;;4958613;28;20817;-76
2021/10/29 15:06:49;;;;;;;19.10;11.40;;;13.80;1.00;;;;;;5054306;28;20413;-76
2021/10/29 15:49:06;;;;;;;19.07;10.67;;;12.20;1.00;;;;;;5021015;28;20418;-76
2021/10/29 15:51:38;;;;;;;22.87;11.40;;;12.10;1.00;;;;;;5015689;28;20407;-77
2021/10/29 15:54:07;;;;;;;28.70;11.33;;;12.00;1.00;;;;;;5012281;28;20438;-77
2021/10/29 16:01:57;;;;;;;33.57;11.03;;;11.60;1.00;;;;;;5025425;28;20942;-76
2021/10/29 16:17:55;;;;;;;25.20;11.23;;;10.80;1.00;;;;;;5052982;28;20935;-75
2021/10/29 16:20:22;;;;;;;20.27;11.20;;;10.70;1.00;;;;;;5036557;28;20438;-75
2021/10/29 16:22:57;;;;;;;22.37;11.87;;;10.60;1.00;;;;;;5057840;28;20769;-75
2021/10/29 16:25:34;;;;;;;18.47;10.53;;;10.50;1.00;;;;;;5035438;28;20418;-75
2021/10/29 16:28:03;;;;;;;24.97;12.80;;;10.30;1.00;;;;;;5051736;28;20425;-75
2021/10/29 16:30:31;;;;;;;29.13;12.47;;;10.20;1.00;;;;;;5052785;28;20430;-75
2021/10/29 16:35:38;;;;;;;29.10;12.23;;;10.10;1.00;;;;;;5056115;28;20907;-74
2021/10/29 16:38:09;;;;;;;22.23;12.37;;;9.90;1.00;;;;;;5052979;28;20476;-75
2021/10/29 16:40:36;;;;;;;22.63;11.43;;;9.80;1.00;;;;;;5049524;28;20421;-74
2021/10/29 16:43:12;;;;;;;19.60;10.93;;;9.70;1.00;;;;;;5059990;28;20406;-75
2021/10/29 16:45:56;;;;;;;24.13;12.13;;;9.70;1.00;;;;;;5051281;28;20402;-76
2021/10/29 16:48:24;;;;;;;25.70;9.83;;;9.60;1.00;;;;;;5049811;28;20429;-75
2021/10/29 16:54:12;;;;;;;22.90;11.30;;;9.40;1.00;;;;;;5055868;28;20503;-75
2021/10/29 16:56:42;;;;;;;21.70;11.10;;;9.30;1.00;;;;;;5055292;28;20426;-75
2021/10/29 16:59:12;;;;;;;19.67;9.67;;;9.20;1.00;;;;;;5052697;28;20595;-75
2021/10/29 17:01:42;;;;;;;21.10;10.17;;;9.10;1.00;;;;;;5034614;28;20415;-76
2021/10/29 17:04:09;;;;;;;19.77;10.00;;;9.10;1.00;;;;;;5045663;28;20445;-75
2021/10/29 17:06:35;;;;;;;21.37;11.03;;;9.00;1.00;;;;;;5058827;28;20443;-75
2021/10/29 17:09:01;;;;;;;18.47;10.07;;;;;;;;;;5061341;28;20940;-76
2021/10/29 17:11:27;;;;;;;25.57;10.87;;;8.90;1.00;;;;;;5044292;28;20433;-75
2021/10/29 17:13:54;;;;;;;19.53;10.47;;;;;;;;;;5062196;28;20859;-76
2021/10/29 17:16:20;;;;;;;28.30;11.67;;;8.70;1.00;;;;;;5060166;28;20436;-75
2021/10/29 17:18:46;;;;;;;24.03;10.17;;;;;;;;;;5071418;28;20397;-75
2021/10/29 17:21:12;;;;;;;22.13;10.67;;;;;;;;;;5049421;28;20179;-76
2021/10/29 17:24:06;;;;;;;22.30;11.40;;;8.50;1.00;;;;;;5053103;28;20761;-76
2021/10/29 17:26:34;;;;;;;17.50;9.83;;;8.40;1.00;;;;;;5053721;28;20516;-76
2021/10/29 17:28:59;;;;;;;20.40;11.00;;;8.40;1.00;;;;;;5045986;28;20987;-76
2021/10/29 17:31:25;;;;;;;18.33;9.77;;;8.40;1.00;;;;;;5056523;28;20524;-75
2021/10/29 17:34:00;;;;;;;20.60;10.60;;;8.30;1.00;;;;;;5070112;28;20275;-75
2021/10/29 17:36:26;;;;;;;22.20;11.07;;;8.30;1.00;;;;;;5055439;28;20634;-75
2021/10/29 17:38:52;;;;;;;16.17;9.67;;;8.20;1.00;;;;;;5056637;28;20429;-76
2021/10/29 17:41:18;;;;;;;26.13;10.20;;;8.20;1.00;;;;;;5043886;28;20192;-76
2021/10/29 17:43:49;;;;;;;19.00;10.10;;;8.10;1.00;;;;;;5053944;28;20252;-77
2021/10/29 17:46:42;;;;;;;19.70;10.30;;;8.10;1.00;;;;;;5077081;28;20930;-75
2021/10/29 17:49:10;;;;;;;13.90;9.07;;;8.00;1.00;;;;;;5067224;28;20413;-75
2021/10/29 17:51:37;;;;;;;27.67;10.33;;;8.00;1.00;;;;;;5045281;28;20430;-75
2021/10/29 17:54:06;;;;;;;20.67;9.80;;;8.00;1.00;;;;;;5036356;28;20442;-75
2021/10/29 17:56:32;;;;;;;19.60;9.90;;;7.90;1.00;;;;;;5040078;28;20418;-75
2021/10/29 17:59:12;;;;;;;17.83;10.60;;;7.90;1.00;;;;;;5056319;28;20788;-76
2021/10/29 18:01:42;;;;;;;27.73;11.60;;;7.80;1.00;;;;;;5055314;28;20687;-75
2021/10/29 18:04:12;;;;;;;18.10;10.10;;;7.80;1.00;;;;;;5072115;28;20428;-76
2021/10/29 18:06:42;;;;;;;26.37;10.23;;;7.70;1.00;;;;;;5056205;28;20935;-75
2021/10/29 18:09:12;;;;;;;18.57;9.30;;;7.70;1.00;;;;;;5056063;28;20415;-75
2021/10/29 18:11:42;;;;;;;18.80;10.50;;;7.70;1.00;;;;;;5043821;28;20424;-76
2021/10/29 18:14:12;;;;;;;18.50;9.83;;;7.60;1.00;;;;;;5069553;28;20448;-76
2021/10/29 18:16:42;;;;;;;17.00;9.87;;;7.60;1.00;;;;;;5056271;28;20442;-76
2021/10/29 18:19:24;;;;;;;23.20;10.43;;;7.60;1.00;;;;;;5067210;28;20454;-77
2021/10/29 18:21:54;;;;;;;26.13;9.20;;;7.60;1.00;;;;;;5042558;28;20840;-78